sensor_id;sensor_type;location;lat;lon;timestamp;P1;durP1;ratioP1;P2;durP2;ratioP2
25331;SDS011;13284;52.748;13.452;2024-02-26T00:01:36;4.37;;;3.07;;
25331;SDS011;13284;52.748;13.452;2024-02-26T00:04:02;3.07;;;2.50;;
25331;SDS011;13284;52.748;13.452;2024-02-26T00:06:28;2.83;;;2.63;;
25331;SDS011;13284;52.748;13.452;2024-02-26T00:08:54;3.27;;;2.37;;
25331;SDS011;13284;52.748;13.452;2024-02-26T00:11:20;3.17;;;2.87;;
25331;SDS011;13284;52.748;13.452;2024-02-26T00:13:45;3.70;;;2.73;;
25331;SDS011;13284;52.748;13.452;2024-02-26T00:16:11;3.27;;;2.97;;
25331;SDS011;13284;52.748;13.452;2024-02-26T00:18:36;2.77;;;2.57;;
25331;SDS011;13284;52.748;13.452;2024-02-26T00:21:02;3.20;;;2.70;;
25331;SDS011;13284;52.748;13.452;2024-02-26T00:23:28;4.03;;;3.20;;
25331;SDS011;13284;52.748;13.452;2024-02-26T00:25:53;4.00;;;2.73;;
25331;SDS011;13284;52.748;13.452;2024-02-26T00:28:20;3.30;;;3.00;;
25331;SDS011;13284;52.748;13.452;2024-02-26T00:30:46;3.20;;;2.80;;
25331;SDS011;13284;52.748;13.452;2024-02-26T00:33:11;3.50;;;2.60;;
25331;SDS011;13284;52.748;13.452;2024-02-26T00:35:37;4.33;;;3.20;;
25331;SDS011;13284;52.748;13.452;2024-02-26T00:38:03;3.53;;;3.17;;
25331;SDS011;13284;52.748;13.452;2024-02-26T00:40:29;3.13;;;2.60;;
25331;SDS011;13284;52.748;13.452;2024-02-26T00:42:54;7.67;;;3.97;;
25331;SDS011;13284;52.748;13.452;2024-02-26T00:45:20;3.47;;;2.70;;
25331;SDS011;13284;52.748;13.452;2024-02-26T00:47:45;4.47;;;3.27;;
25331;SDS011;13284;52.748;13.452;2024-02-26T00:50:12;3.17;;;2.87;;
25331;SDS011;13284;52.748;13.452;2024-02-26T00:52:38;3.10;;;2.60;;
25331;SDS011;13284;52.748;13.452;2024-02-26T00:55:03;3.90;;;3.33;;
25331;SDS011;13284;52.748;13.452;2024-02-26T00:57:29;3.20;;;2.87;;
25331;SDS011;13284;52.748;13.452;2024-02-26T00:59:55;2.93;;;2.57;;
25331;SDS011;13284;52.748;13.452;2024-02-26T01:02:21;3.60;;;2.70;;
25331;SDS011;13284;52.748;13.452;2024-02-26T01:04:47;3.90;;;3.43;;
25331;SDS011;13284;52.748;13.452;2024-02-26T01:07:13;3.63;;;3.23;;
25331;SDS011;13284;52.748;13.452;2024-02-26T01:09:38;3.93;;;2.93;;
25331;SDS011;13284;52.748;13.452;2024-02-26T01:12:04;3.27;;;2.80;;
25331;SDS011;13284;52.748;13.452;2024-02-26T01:14:29;4.50;;;3.37;;
25331;SDS011;13284;52.748;13.452;2024-02-26T01:16:55;3.53;;;2.43;;
25331;SDS011;13284;52.748;13.452;2024-02-26T01:19:20;5.03;;;3.90;;
25331;SDS011;13284;52.748;13.452;2024-02-26T01:21:46;3.57;;;3.27;;
25331;SDS011;13284;52.748;13.452;2024-02-26T01:24:12;4.53;;;3.50;;
25331;SDS011;13284;52.748;13.452;2024-02-26T01:26:37;4.03;;;3.27;;
25331;SDS011;13284;52.748;13.452;2024-02-26T01:29:03;2.77;;;2.50;;
25331;SDS011;13284;52.748;13.452;2024-02-26T01:31:29;4.30;;;3.17;;
25331;SDS011;13284;52.748;13.452;2024-02-26T01:33:54;3.20;;;2.90;;
25331;SDS011;13284;52.748;13.452;2024-02-26T01:36:20;3.67;;;2.90;;
25331;SDS011;13284;52.748;13.452;2024-02-26T01:38:46;3.83;;;3.53;;
25331;SDS011;13284;52.748;13.452;2024-02-26T01:41:13;3.53;;;2.90;;
25331;SDS011;13284;52.748;13.452;2024-02-26T01:43:39;3.53;;;3.17;;
25331;SDS011;13284;52.748;13.452;2024-02-26T01:46:04;3.30;;;2.87;;
25331;SDS011;13284;52.748;13.452;2024-02-26T01:48:30;3.80;;;3.00;;
25331;SDS011;13284;52.748;13.452;2024-02-26T01:50:55;2.90;;;2.43;;
25331;SDS011;13284;52.748;13.452;2024-02-26T01:53:21;3.60;;;3.30;;
25331;SDS011;13284;52.748;13.452;2024-02-26T01:55:47;3.50;;;3.20;;
25331;SDS011;13284;52.748;13.452;2024-02-26T01:58:13;3.60;;;3.30;;
25331;SDS011;13284;52.748;13.452;2024-02-26T02:00:39;6.00;;;3.63;;
25331;SDS011;13284;52.748;13.452;2024-02-26T02:03:05;4.80;;;2.93;;
25331;SDS011;13284;52.748;13.452;2024-02-26T02:05:31;6.20;;;3.10;;
25331;SDS011;13284;52.748;13.452;2024-02-26T02:07:57;5.40;;;3.80;;
25331;SDS011;13284;52.748;13.452;2024-02-26T02:10:24;5.20;;;3.87;;
25331;SDS011;13284;52.748;13.452;2024-02-26T02:12:51;3.23;;;2.93;;
25331;SDS011;13284;52.748;13.452;2024-02-26T02:15:16;3.97;;;3.20;;
25331;SDS011;13284;52.748;13.452;2024-02-26T02:17:42;3.47;;;3.17;;
25331;SDS011;13284;52.748;13.452;2024-02-26T02:20:08;3.50;;;3.10;;
25331;SDS011;13284;52.748;13.452;2024-02-26T02:22:35;3.83;;;3.37;;
25331;SDS011;13284;52.748;13.452;2024-02-26T02:25:00;3.07;;;2.77;;
25331;SDS011;13284;52.748;13.452;2024-02-26T02:27:26;4.20;;;3.37;;
25331;SDS011;13284;52.748;13.452;2024-02-26T02:29:53;3.50;;;3.10;;
25331;SDS011;13284;52.748;13.452;2024-02-26T02:32:18;2.63;;;2.43;;
25331;SDS011;13284;52.748;13.452;2024-02-26T02:34:45;4.33;;;3.10;;
25331;SDS011;13284;52.748;13.452;2024-02-26T02:37:11;4.60;;;3.47;;
25331;SDS011;13284;52.748;13.452;2024-02-26T02:39:36;8.37;;;3.80;;
25331;SDS011;13284;52.748;13.452;2024-02-26T02:42:02;5.30;;;3.30;;
25331;SDS011;13284;52.748;13.452;2024-02-26T02:44:27;3.73;;;3.33;;
25331;SDS011;13284;52.748;13.452;2024-02-26T02:46:53;5.00;;;3.20;;
25331;SDS011;13284;52.748;13.452;2024-02-26T02:49:18;4.87;;;3.67;;
25331;SDS011;13284;52.748;13.452;2024-02-26T02:51:44;5.37;;;3.37;;
25331;SDS011;13284;52.748;13.452;2024-02-26T02:54:09;5.30;;;3.13;;
25331;SDS011;13284;52.748;13.452;2024-02-26T02:56:35;4.00;;;3.70;;
25331;SDS011;13284;52.748;13.452;2024-02-26T02:59:01;2.53;;;2.40;;
25331;SDS011;13284;52.748;13.452;2024-02-26T03:01:27;3.70;;;3.30;;
25331;SDS011;13284;52.748;13.452;2024-02-26T03:03:52;4.60;;;2.93;;
25331;SDS011;13284;52.748;13.452;2024-02-26T03:06:17;3.20;;;3.00;;
25331;SDS011;13284;52.748;13.452;2024-02-26T03:08:43;4.60;;;2.80;;
25331;SDS011;13284;52.748;13.452;2024-02-26T03:11:12;3.10;;;2.90;;
25331;SDS011;13284;52.748;13.452;2024-02-26T03:13:39;3.40;;;2.97;;
25331;SDS011;13284;52.748;13.452;2024-02-26T03:16:05;4.60;;;3.00;;
25331;SDS011;13284;52.748;13.452;2024-02-26T03:18:30;2.80;;;2.60;;
25331;SDS011;13284;52.748;13.452;2024-02-26T03:20:56;4.53;;;3.30;;
25331;SDS011;13284;52.748;13.452;2024-02-26T03:23:21;4.40;;;2.90;;
25331;SDS011;13284;52.748;13.452;2024-02-26T03:25:47;4.37;;;3.40;;
25331;SDS011;13284;52.748;13.452;2024-02-26T03:28:13;4.37;;;3.03;;
25331;SDS011;13284;52.748;13.452;2024-02-26T03:30:38;2.60;;;2.40;;
25331;SDS011;13284;52.748;13.452;2024-02-26T03:33:04;3.87;;;3.50;;
25331;SDS011;13284;52.748;13.452;2024-02-26T03:35:29;3.37;;;3.10;;
25331;SDS011;13284;52.748;13.452;2024-02-26T03:37:55;4.80;;;3.80;;
25331;SDS011;13284;52.748;13.452;2024-02-26T03:40:20;3.63;;;2.97;;
25331;SDS011;13284;52.748;13.452;2024-02-26T03:42:46;3.27;;;2.97;;
25331;SDS011;13284;52.748;13.452;2024-02-26T03:45:12;3.67;;;2.80;;
25331;SDS011;13284;52.748;13.452;2024-02-26T03:47:37;5.50;;;2.90;;
25331;SDS011;13284;52.748;13.452;2024-02-26T03:50:06;5.80;;;2.80;;
25331;SDS011;13284;52.748;13.452;2024-02-26T03:52:32;2.50;;;2.30;;
25331;SDS011;13284;52.748;13.452;2024-02-26T03:54:58;3.33;;;3.03;;
25331;SDS011;13284;52.748;13.452;2024-02-26T03:57:23;2.70;;;2.50;;
25331;SDS011;13284;52.748;13.452;2024-02-26T03:59:49;4.07;;;3.03;;
25331;SDS011;13284;52.748;13.452;2024-02-26T04:02:14;3.67;;;3.20;;
25331;SDS011;13284;52.748;13.452;2024-02-26T04:04:41;3.57;;;3.27;;
25331;SDS011;13284;52.748;13.452;2024-02-26T04:07:07;5.13;;;2.57;;
25331;SDS011;13284;52.748;13.452;2024-02-26T04:09:32;4.50;;;2.60;;
25331;SDS011;13284;52.748;13.452;2024-02-26T04:11:58;4.17;;;3.27;;
25331;SDS011;13284;52.748;13.452;2024-02-26T04:14:24;4.80;;;3.53;;
25331;SDS011;13284;52.748;13.452;2024-02-26T04:16:49;3.87;;;2.90;;
25331;SDS011;13284;52.748;13.452;2024-02-26T04:19:17;4.70;;;3.00;;
25331;SDS011;13284;52.748;13.452;2024-02-26T04:21:42;3.23;;;2.93;;
25331;SDS011;13284;52.748;13.452;2024-02-26T04:24:08;3.40;;;3.10;;
25331;SDS011;13284;52.748;13.452;2024-02-26T04:26:34;3.88;;;3.47;;
25331;SDS011;13284;52.748;13.452;2024-02-26T04:29:00;6.20;;;3.33;;
25331;SDS011;13284;52.748;13.452;2024-02-26T04:31:25;2.70;;;2.50;;
25331;SDS011;13284;52.748;13.452;2024-02-26T04:33:51;4.43;;;3.80;;
25331;SDS011;13284;52.748;13.452;2024-02-26T04:36:17;3.67;;;3.10;;
25331;SDS011;13284;52.748;13.452;2024-02-26T04:38:45;3.07;;;2.87;;
25331;SDS011;13284;52.748;13.452;2024-02-26T04:41:11;4.10;;;3.80;;
25331;SDS011;13284;52.748;13.452;2024-02-26T04:43:37;4.03;;;3.63;;
25331;SDS011;13284;52.748;13.452;2024-02-26T04:46:09;3.73;;;3.43;;
25331;SDS011;13284;52.748;13.452;2024-02-26T04:48:35;3.03;;;2.83;;
25331;SDS011;13284;52.748;13.452;2024-02-26T04:51:01;4.67;;;2.77;;
25331;SDS011;13284;52.748;13.452;2024-02-26T04:53:28;3.87;;;3.27;;
25331;SDS011;13284;52.748;13.452;2024-02-26T04:55:53;2.47;;;2.00;;
25331;SDS011;13284;52.748;13.452;2024-02-26T04:58:19;4.47;;;3.40;;
25331;SDS011;13284;52.748;13.452;2024-02-26T05:00:44;6.20;;;4.30;;
25331;SDS011;13284;52.748;13.452;2024-02-26T05:03:10;4.83;;;3.40;;
25331;SDS011;13284;52.748;13.452;2024-02-26T05:05:40;3.73;;;2.30;;
25331;SDS011;13284;52.748;13.452;2024-02-26T05:08:06;4.50;;;2.73;;
25331;SDS011;13284;52.748;13.452;2024-02-26T05:10:32;3.23;;;2.87;;
25331;SDS011;13284;52.748;13.452;2024-02-26T05:12:58;4.83;;;3.57;;
25331;SDS011;13284;52.748;13.452;2024-02-26T05:15:23;3.90;;;3.37;;
25331;SDS011;13284;52.748;13.452;2024-02-26T05:17:49;4.30;;;3.60;;
25331;SDS011;13284;52.748;13.452;2024-02-26T05:20:14;3.87;;;2.80;;
25331;SDS011;13284;52.748;13.452;2024-02-26T05:22:40;5.50;;;4.07;;
25331;SDS011;13284;52.748;13.452;2024-02-26T05:25:05;3.93;;;3.43;;
25331;SDS011;13284;52.748;13.452;2024-02-26T05:27:31;5.47;;;3.70;;
25331;SDS011;13284;52.748;13.452;2024-02-26T05:29:56;5.57;;;3.57;;
25331;SDS011;13284;52.748;13.452;2024-02-26T05:32:22;3.93;;;3.47;;
25331;SDS011;13284;52.748;13.452;2024-02-26T05:34:47;4.60;;;3.87;;
25331;SDS011;13284;52.748;13.452;2024-02-26T05:37:13;5.73;;;5.13;;
25331;SDS011;13284;52.748;13.452;2024-02-26T05:39:38;4.00;;;3.60;;
25331;SDS011;13284;52.748;13.452;2024-02-26T05:42:04;5.43;;;4.00;;
25331;SDS011;13284;52.748;13.452;2024-02-26T05:44:30;4.70;;;3.50;;
25331;SDS011;13284;52.748;13.452;2024-02-26T05:46:55;3.30;;;3.00;;
25331;SDS011;13284;52.748;13.452;2024-02-26T05:49:22;3.97;;;2.97;;
25331;SDS011;13284;52.748;13.452;2024-02-26T05:51:47;6.23;;;2.80;;
25331;SDS011;13284;52.748;13.452;2024-02-26T05:54:13;5.27;;;3.47;;
25331;SDS011;13284;52.748;13.452;2024-02-26T05:56:38;4.67;;;3.60;;
25331;SDS011;13284;52.748;13.452;2024-02-26T05:59:04;3.70;;;3.30;;
25331;SDS011;13284;52.748;13.452;2024-02-26T06:01:30;6.73;;;3.70;;
25331;SDS011;13284;52.748;13.452;2024-02-26T06:03:56;5.50;;;3.70;;
25331;SDS011;13284;52.748;13.452;2024-02-26T06:06:22;5.67;;;3.87;;
25331;SDS011;13284;52.748;13.452;2024-02-26T06:08:48;5.43;;;3.63;;
25331;SDS011;13284;52.748;13.452;2024-02-26T06:11:14;5.30;;;4.27;;
25331;SDS011;13284;52.748;13.452;2024-02-26T06:13:39;4.93;;;3.23;;
25331;SDS011;13284;52.748;13.452;2024-02-26T06:16:05;6.30;;;3.80;;
25331;SDS011;13284;52.748;13.452;2024-02-26T06:18:32;4.40;;;3.97;;
25331;SDS011;13284;52.748;13.452;2024-02-26T06:20:58;5.60;;;3.80;;
25331;SDS011;13284;52.748;13.452;2024-02-26T06:23:24;5.50;;;3.50;;
25331;SDS011;13284;52.748;13.452;2024-02-26T06:25:50;5.77;;;4.00;;
25331;SDS011;13284;52.748;13.452;2024-02-26T06:28:16;6.20;;;3.73;;
25331;SDS011;13284;52.748;13.452;2024-02-26T06:30:41;6.57;;;3.00;;
25331;SDS011;13284;52.748;13.452;2024-02-26T06:33:07;5.37;;;3.70;;
25331;SDS011;13284;52.748;13.452;2024-02-26T06:35:33;5.00;;;3.70;;
25331;SDS011;13284;52.748;13.452;2024-02-26T06:37:58;4.47;;;3.37;;
25331;SDS011;13284;52.748;13.452;2024-02-26T06:40:24;4.83;;;3.43;;
25331;SDS011;13284;52.748;13.452;2024-02-26T06:42:50;4.60;;;3.70;;
25331;SDS011;13284;52.748;13.452;2024-02-26T06:45:15;5.70;;;3.83;;
25331;SDS011;13284;52.748;13.452;2024-02-26T06:47:41;5.47;;;3.80;;
25331;SDS011;13284;52.748;13.452;2024-02-26T06:50:07;5.00;;;4.50;;
25331;SDS011;13284;52.748;13.452;2024-02-26T06:52:33;5.17;;;4.10;;
25331;SDS011;13284;52.748;13.452;2024-02-26T06:55:01;5.37;;;4.03;;
25331;SDS011;13284;52.748;13.452;2024-02-26T06:57:27;6.07;;;5.23;;
25331;SDS011;13284;52.748;13.452;2024-02-26T06:59:52;12.20;;;6.43;;
25331;SDS011;13284;52.748;13.452;2024-02-26T07:02:18;8.60;;;5.00;;
25331;SDS011;13284;52.748;13.452;2024-02-26T07:04:43;8.47;;;6.03;;
25331;SDS011;13284;52.748;13.452;2024-02-26T07:07:08;9.43;;;6.27;;
25331;SDS011;13284;52.748;13.452;2024-02-26T07:09:35;6.93;;;5.40;;
25331;SDS011;13284;52.748;13.452;2024-02-26T07:12:01;8.13;;;6.10;;
25331;SDS011;13284;52.748;13.452;2024-02-26T07:14:27;9.47;;;6.33;;
25331;SDS011;13284;52.748;13.452;2024-02-26T07:16:52;9.07;;;6.50;;
25331;SDS011;13284;52.748;13.452;2024-02-26T07:19:18;10.47;;;6.67;;
25331;SDS011;13284;52.748;13.452;2024-02-26T07:21:43;9.90;;;6.50;;
25331;SDS011;13284;52.748;13.452;2024-02-26T07:24:09;10.33;;;6.73;;
25331;SDS011;13284;52.748;13.452;2024-02-26T07:26:34;11.53;;;6.80;;
25331;SDS011;13284;52.748;13.452;2024-02-26T07:29:00;10.83;;;7.10;;
25331;SDS011;13284;52.748;13.452;2024-02-26T07:31:26;9.73;;;7.50;;
25331;SDS011;13284;52.748;13.452;2024-02-26T07:33:51;11.43;;;7.80;;
25331;SDS011;13284;52.748;13.452;2024-02-26T07:36:17;9.10;;;6.80;;
25331;SDS011;13284;52.748;13.452;2024-02-26T07:38:42;11.67;;;7.37;;
25331;SDS011;13284;52.748;13.452;2024-02-26T07:41:08;13.60;;;7.30;;
25331;SDS011;13284;52.748;13.452;2024-02-26T07:43:34;10.60;;;6.93;;
25331;SDS011;13284;52.748;13.452;2024-02-26T07:45:59;10.30;;;6.70;;
25331;SDS011;13284;52.748;13.452;2024-02-26T07:48:25;11.47;;;8.20;;
25331;SDS011;13284;52.748;13.452;2024-02-26T07:50:51;11.30;;;7.50;;
25331;SDS011;13284;52.748;13.452;2024-02-26T07:53:16;11.07;;;8.87;;
25331;SDS011;13284;52.748;13.452;2024-02-26T07:55:42;11.93;;;8.70;;
25331;SDS011;13284;52.748;13.452;2024-02-26T07:58:07;12.97;;;8.80;;
25331;SDS011;13284;52.748;13.452;2024-02-26T08:00:33;11.10;;;7.53;;
25331;SDS011;13284;52.748;13.452;2024-02-26T08:02:58;11.90;;;8.57;;
25331;SDS011;13284;52.748;13.452;2024-02-26T08:05:24;12.40;;;8.73;;
25331;SDS011;13284;52.748;13.452;2024-02-26T08:07:50;11.70;;;8.77;;
25331;SDS011;13284;52.748;13.452;2024-02-26T08:10:15;12.87;;;9.53;;
25331;SDS011;13284;52.748;13.452;2024-02-26T08:12:41;15.20;;;9.30;;
25331;SDS011;13284;52.748;13.452;2024-02-26T08:15:07;13.53;;;8.87;;
25331;SDS011;13284;52.748;13.452;2024-02-26T08:17:33;12.47;;;8.77;;
25331;SDS011;13284;52.748;13.452;2024-02-26T08:19:59;13.67;;;10.10;;
25331;SDS011;13284;52.748;13.452;2024-02-26T08:22:24;13.03;;;10.10;;
25331;SDS011;13284;52.748;13.452;2024-02-26T08:24:50;11.77;;;9.37;;
25331;SDS011;13284;52.748;13.452;2024-02-26T08:27:16;14.50;;;9.93;;
25331;SDS011;13284;52.748;13.452;2024-02-26T08:29:41;15.33;;;11.03;;
25331;SDS011;13284;52.748;13.452;2024-02-26T08:32:06;15.10;;;10.10;;
25331;SDS011;13284;52.748;13.452;2024-02-26T08:34:32;17.50;;;10.50;;
25331;SDS011;13284;52.748;13.452;2024-02-26T08:36:58;16.40;;;9.93;;
25331;SDS011;13284;52.748;13.452;2024-02-26T08:39:23;17.50;;;12.60;;
25331;SDS011;13284;52.748;13.452;2024-02-26T08:41:49;17.20;;;11.70;;
25331;SDS011;13284;52.748;13.452;2024-02-26T08:44:14;16.23;;;11.23;;
25331;SDS011;13284;52.748;13.452;2024-02-26T08:46:49;17.13;;;11.23;;
25331;SDS011;13284;52.748;13.452;2024-02-26T08:49:24;17.37;;;12.37;;
25331;SDS011;13284;52.748;13.452;2024-02-26T08:51:51;13.03;;;10.87;;
25331;SDS011;13284;52.748;13.452;2024-02-26T08:54:16;13.30;;;10.40;;
25331;SDS011;13284;52.748;13.452;2024-02-26T08:56:41;17.97;;;10.93;;
25331;SDS011;13284;52.748;13.452;2024-02-26T08:59:07;15.20;;;11.40;;
25331;SDS011;13284;52.748;13.452;2024-02-26T09:01:34;24.23;;;13.30;;
25331;SDS011;13284;52.748;13.452;2024-02-26T09:03:59;15.63;;;12.40;;
25331;SDS011;13284;52.748;13.452;2024-02-26T09:06:25;17.80;;;12.47;;
25331;SDS011;13284;52.748;13.452;2024-02-26T09:08:51;20.27;;;12.93;;
25331;SDS011;13284;52.748;13.452;2024-02-26T09:11:16;15.67;;;12.30;;
25331;SDS011;13284;52.748;13.452;2024-02-26T09:13:42;19.47;;;12.60;;
25331;SDS011;13284;52.748;13.452;2024-02-26T09:16:07;20.67;;;12.00;;
25331;SDS011;13284;52.748;13.452;2024-02-26T09:18:33;17.77;;;13.60;;
25331;SDS011;13284;52.748;13.452;2024-02-26T09:20:58;19.50;;;13.27;;
25331;SDS011;13284;52.748;13.452;2024-02-26T09:23:24;17.20;;;12.80;;
25331;SDS011;13284;52.748;13.452;2024-02-26T09:25:49;20.60;;;13.53;;
25331;SDS011;13284;52.748;13.452;2024-02-26T09:28:15;17.83;;;12.90;;
25331;SDS011;13284;52.748;13.452;2024-02-26T09:30:42;18.33;;;12.37;;
25331;SDS011;13284;52.748;13.452;2024-02-26T09:33:10;17.07;;;12.57;;
25331;SDS011;13284;52.748;13.452;2024-02-26T09:35:36;13.73;;;12.23;;
25331;SDS011;13284;52.748;13.452;2024-02-26T09:38:02;17.03;;;12.93;;
25331;SDS011;13284;52.748;13.452;2024-02-26T09:40:28;21.13;;;14.13;;
25331;SDS011;13284;52.748;13.452;2024-02-26T09:42:56;19.37;;;12.90;;
25331;SDS011;13284;52.748;13.452;2024-02-26T09:45:25;22.13;;;13.50;;
25331;SDS011;13284;52.748;13.452;2024-02-26T09:47:52;20.83;;;13.43;;
25331;SDS011;13284;52.748;13.452;2024-02-26T09:50:20;19.70;;;13.30;;
25331;SDS011;13284;52.748;13.452;2024-02-26T09:52:47;18.03;;;13.40;;
25331;SDS011;13284;52.748;13.452;2024-02-26T09:55:14;18.10;;;14.17;;
25331;SDS011;13284;52.748;13.452;2024-02-26T09:57:42;17.73;;;12.80;;
25331;SDS011;13284;52.748;13.452;2024-02-26T10:00:10;19.50;;;12.93;;
25331;SDS011;13284;52.748;13.452;2024-02-26T10:02:43;20.67;;;14.00;;
25331;SDS011;13284;52.748;13.452;2024-02-26T10:05:10;16.80;;;11.73;;
25331;SDS011;13284;52.748;13.452;2024-02-26T10:07:39;17.93;;;12.80;;
25331;SDS011;13284;52.748;13.452;2024-02-26T10:10:05;17.40;;;12.53;;
25331;SDS011;13284;52.748;13.452;2024-02-26T10:12:31;18.00;;;12.63;;
25331;SDS011;13284;52.748;13.452;2024-02-26T10:14:57;17.90;;;13.53;;
25331;SDS011;13284;52.748;13.452;2024-02-26T10:17:23;15.30;;;11.93;;
25331;SDS011;13284;52.748;13.452;2024-02-26T10:19:49;16.77;;;11.90;;
25331;SDS011;13284;52.748;13.452;2024-02-26T10:22:16;22.00;;;14.73;;
25331;SDS011;13284;52.748;13.452;2024-02-26T10:24:42;15.93;;;13.13;;
25331;SDS011;13284;52.748;13.452;2024-02-26T10:27:07;14.10;;;11.40;;
25331;SDS011;13284;52.748;13.452;2024-02-26T10:29:33;20.33;;;14.70;;
25331;SDS011;13284;52.748;13.452;2024-02-26T10:31:59;15.40;;;12.00;;
25331;SDS011;13284;52.748;13.452;2024-02-26T10:34:25;27.10;;;14.57;;
25331;SDS011;13284;52.748;13.452;2024-02-26T10:36:51;18.07;;;12.90;;
25331;SDS011;13284;52.748;13.452;2024-02-26T10:39:17;17.33;;;13.03;;
25331;SDS011;13284;52.748;13.452;2024-02-26T10:41:43;15.67;;;12.10;;
25331;SDS011;13284;52.748;13.452;2024-02-26T10:44:09;15.03;;;11.77;;
25331;SDS011;13284;52.748;13.452;2024-02-26T10:46:42;14.63;;;11.07;;
25331;SDS011;13284;52.748;13.452;2024-02-26T10:49:14;14.47;;;10.77;;
25331;SDS011;13284;52.748;13.452;2024-02-26T10:51:45;13.10;;;11.20;;
25331;SDS011;13284;52.748;13.452;2024-02-26T10:54:15;12.90;;;11.33;;
25331;SDS011;13284;52.748;13.452;2024-02-26T10:56:41;17.13;;;12.60;;
25331;SDS011;13284;52.748;13.452;2024-02-26T10:59:09;14.17;;;10.80;;
25331;SDS011;13284;52.748;13.452;2024-02-26T11:01:37;15.37;;;11.70;;
25331;SDS011;13284;52.748;13.452;2024-02-26T11:04:06;11.53;;;10.33;;
25331;SDS011;13284;52.748;13.452;2024-02-26T11:06:33;17.30;;;12.30;;
25331;SDS011;13284;52.748;13.452;2024-02-26T11:08:59;15.47;;;11.40;;
25331;SDS011;13284;52.748;13.452;2024-02-26T11:11:31;13.87;;;11.20;;
25331;SDS011;13284;52.748;13.452;2024-02-26T11:13:59;13.60;;;10.70;;
25331;SDS011;13284;52.748;13.452;2024-02-26T11:16:28;12.03;;;10.10;;
25331;SDS011;13284;52.748;13.452;2024-02-26T11:18:54;13.10;;;10.40;;
25331;SDS011;13284;52.748;13.452;2024-02-26T11:21:21;12.00;;;10.73;;
25331;SDS011;13284;52.748;13.452;2024-02-26T11:24:03;10.20;;;9.10;;
25331;SDS011;13284;52.748;13.452;2024-02-26T11:26:50;20.30;;;11.90;;
25331;SDS011;13284;52.748;13.452;2024-02-26T11:29:23;15.30;;;11.77;;
25331;SDS011;13284;52.748;13.452;2024-02-26T11:31:52;11.10;;;9.77;;
25331;SDS011;13284;52.748;13.452;2024-02-26T11:34:18;12.83;;;9.30;;
25331;SDS011;13284;52.748;13.452;2024-02-26T11:36:43;13.57;;;10.40;;
25331;SDS011;13284;52.748;13.452;2024-02-26T11:39:11;14.13;;;10.00;;
25331;SDS011;13284;52.748;13.452;2024-02-26T11:41:38;9.33;;;8.33;;
25331;SDS011;13284;52.748;13.452;2024-02-26T11:44:03;9.13;;;7.63;;
25331;SDS011;13284;52.748;13.452;2024-02-26T11:46:32;9.37;;;8.37;;
25331;SDS011;13284;52.748;13.452;2024-02-26T11:49:04;10.00;;;7.93;;
25331;SDS011;13284;52.748;13.452;2024-02-26T11:51:52;11.03;;;8.43;;
25331;SDS011;13284;52.748;13.452;2024-02-26T11:54:45;9.50;;;8.10;;
25331;SDS011;13284;52.748;13.452;2024-02-26T11:57:37;13.47;;;10.53;;
25331;SDS011;13284;52.748;13.452;2024-02-26T12:05:14;7.17;;;5.97;;
25331;SDS011;13284;52.748;13.452;2024-02-26T12:07:52;8.47;;;6.33;;
25331;SDS011;13284;52.748;13.452;2024-02-26T12:10:26;10.47;;;6.70;;
25331;SDS011;13284;52.748;13.452;2024-02-26T12:13:06;8.30;;;6.47;;
25331;SDS011;13284;52.748;13.452;2024-02-26T12:15:37;7.43;;;5.80;;
25331;SDS011;13284;52.748;13.452;2024-02-26T12:18:08;9.37;;;7.43;;
25331;SDS011;13284;52.748;13.452;2024-02-26T12:20:36;9.20;;;7.27;;
25331;SDS011;13284;52.748;13.452;2024-02-26T12:23:02;8.07;;;6.70;;
25331;SDS011;13284;52.748;13.452;2024-02-26T12:25:31;8.37;;;6.60;;
25331;SDS011;13284;52.748;13.452;2024-02-26T12:27:58;7.00;;;6.07;;
25331;SDS011;13284;52.748;13.452;2024-02-26T12:30:24;7.50;;;6.70;;
25331;SDS011;13284;52.748;13.452;2024-02-26T12:32:54;7.10;;;5.73;;
25331;SDS011;13284;52.748;13.452;2024-02-26T12:35:22;8.77;;;6.00;;
25331;SDS011;13284;52.748;13.452;2024-02-26T12:37:49;8.00;;;6.30;;
25331;SDS011;13284;52.748;13.452;2024-02-26T12:40:16;6.00;;;5.40;;
25331;SDS011;13284;52.748;13.452;2024-02-26T12:42:42;8.40;;;5.37;;
25331;SDS011;13284;52.748;13.452;2024-02-26T12:45:09;5.73;;;5.17;;
25331;SDS011;13284;52.748;13.452;2024-02-26T12:47:39;6.83;;;5.63;;
25331;SDS011;13284;52.748;13.452;2024-02-26T12:50:06;5.30;;;4.80;;
25331;SDS011;13284;52.748;13.452;2024-02-26T12:52:32;7.57;;;4.83;;
25331;SDS011;13284;52.748;13.452;2024-02-26T12:55:00;6.47;;;4.63;;
25331;SDS011;13284;52.748;13.452;2024-02-26T12:57:27;7.37;;;5.23;;
25331;SDS011;13284;52.748;13.452;2024-02-26T12:59:57;7.40;;;5.43;;
25331;SDS011;13284;52.748;13.452;2024-02-26T13:02:24;6.27;;;4.47;;
25331;SDS011;13284;52.748;13.452;2024-02-26T13:04:50;5.97;;;4.30;;
25331;SDS011;13284;52.748;13.452;2024-02-26T13:07:16;4.33;;;3.90;;
25331;SDS011;13284;52.748;13.452;2024-02-26T13:09:42;5.07;;;4.43;;
25331;SDS011;13284;52.748;13.452;2024-02-26T13:12:08;4.30;;;3.90;;
25331;SDS011;13284;52.748;13.452;2024-02-26T13:14:34;4.77;;;3.77;;
25331;SDS011;13284;52.748;13.452;2024-02-26T13:16:59;4.63;;;3.97;;
25331;SDS011;13284;52.748;13.452;2024-02-26T13:19:25;4.10;;;3.37;;
25331;SDS011;13284;52.748;13.452;2024-02-26T13:21:52;5.67;;;4.40;;
25331;SDS011;13284;52.748;13.452;2024-02-26T13:24:19;4.47;;;3.60;;
25331;SDS011;13284;52.748;13.452;2024-02-26T13:26:45;5.30;;;3.60;;
25331;SDS011;13284;52.748;13.452;2024-02-26T13:29:17;4.20;;;3.60;;
25331;SDS011;13284;52.748;13.452;2024-02-26T13:31:43;5.00;;;3.20;;
25331;SDS011;13284;52.748;13.452;2024-02-26T13:34:08;5.10;;;3.77;;
25331;SDS011;13284;52.748;13.452;2024-02-26T13:36:34;3.77;;;3.47;;
25331;SDS011;13284;52.748;13.452;2024-02-26T13:38:59;3.70;;;3.40;;
25331;SDS011;13284;52.748;13.452;2024-02-26T13:41:26;3.43;;;3.10;;
25331;SDS011;13284;52.748;13.452;2024-02-26T13:43:52;4.67;;;3.17;;
25331;SDS011;13284;52.748;13.452;2024-02-26T13:46:17;4.27;;;3.03;;
25331;SDS011;13284;52.748;13.452;2024-02-26T13:48:43;3.70;;;3.40;;
25331;SDS011;13284;52.748;13.452;2024-02-26T13:51:09;6.33;;;4.53;;
25331;SDS011;13284;52.748;13.452;2024-02-26T13:53:34;6.00;;;4.70;;
25331;SDS011;13284;52.748;13.452;2024-02-26T13:56:00;4.80;;;4.30;;
25331;SDS011;13284;52.748;13.452;2024-02-26T13:58:27;5.53;;;4.93;;
25331;SDS011;13284;52.748;13.452;2024-02-26T14:00:53;6.93;;;4.90;;
25331;SDS011;13284;52.748;13.452;2024-02-26T14:03:19;4.90;;;4.27;;
25331;SDS011;13284;52.748;13.452;2024-02-26T14:05:45;6.10;;;5.23;;
25331;SDS011;13284;52.748;13.452;2024-02-26T14:08:11;6.83;;;4.67;;
25331;SDS011;13284;52.748;13.452;2024-02-26T14:10:37;6.50;;;4.87;;
25331;SDS011;13284;52.748;13.452;2024-02-26T14:13:03;5.10;;;4.60;;
25331;SDS011;13284;52.748;13.452;2024-02-26T14:15:29;4.83;;;4.30;;
25331;SDS011;13284;52.748;13.452;2024-02-26T14:17:55;5.03;;;4.20;;
25331;SDS011;13284;52.748;13.452;2024-02-26T14:20:23;5.90;;;4.47;;
25331;SDS011;13284;52.748;13.452;2024-02-26T14:22:50;6.83;;;4.40;;
25331;SDS011;13284;52.748;13.452;2024-02-26T14:25:19;6.00;;;4.37;;
25331;SDS011;13284;52.748;13.452;2024-02-26T14:27:45;5.10;;;4.33;;
25331;SDS011;13284;52.748;13.452;2024-02-26T14:30:12;6.00;;;4.57;;